Terminal Aerodrome Forecast
Issued by NWS

Home | Current Version | Previous Version | Text Only | Print | Product List | Glossary On
Versions: 1 2 3 4 5 6 7 8 9 10 11 12 13 14 15 16 17 18 19 20 21 22 23 24 25 26 27 28
000
FTUS43 KDLH 250500
TAFHIB
TAF
KHIB 250521Z 2506/2606 07008KT P6SM BKN012 OVC023
     FM251400 12005KT P6SM SCT020 BKN160
     FM252000 19005KT P6SM SKC
     FM260500 19009G20KT 5SM -SN BKN023=

USA.gov is the U.S. government's official web portal to all federal, state and local government web resources and services.